createdAt,value
2024-01-12T00:00:22.452Z,11.60
2024-01-12T00:03:26.207Z,11.18
2024-01-12T00:06:40.287Z,11.23
2024-01-12T00:09:45.118Z,11.00
2024-01-12T00:12:59.712Z,11.88
2024-01-12T00:16:22.193Z,11.70
2024-01-12T00:19:44.119Z,11.25
2024-01-12T00:22:47.780Z,10.00
2024-01-12T00:26:00.891Z,12.20
2024-01-12T00:29:12.213Z,12.77
2024-01-12T00:32:25.973Z,13.10
2024-01-12T00:35:50.766Z,12.10
2024-01-12T00:39:34.037Z,10.77
2024-01-12T00:43:13.228Z,12.38
2024-01-12T00:46:35.133Z,10.70
2024-01-12T00:49:38.653Z,12.13
2024-01-12T00:52:43.880Z,12.65
2024-01-12T00:55:47.585Z,12.23
2024-01-12T00:58:52.681Z,11.13
2024-01-12T01:01:59.823Z,12.32
2024-01-12T01:05:13.820Z,12.30
2024-01-12T01:08:37.293Z,11.93
2024-01-12T01:11:58.298Z,11.93
2024-01-12T01:15:05.011Z,12.32
2024-01-12T01:18:19.447Z,11.48
2024-01-12T01:21:28.378Z,11.43
2024-01-12T01:24:36.362Z,11.93
2024-01-12T01:28:01.106Z,11.97
2024-01-12T01:31:24.825Z,11.00
2024-01-12T01:34:34.799Z,12.63
2024-01-12T01:37:54.110Z,12.13
2024-01-12T01:41:17.140Z,12.13
2024-01-12T01:44:43.710Z,11.47
2024-01-12T01:48:02.980Z,12.75
2024-01-12T01:51:12.575Z,13.60
2024-01-12T01:54:20.762Z,12.57
2024-01-12T01:57:29.312Z,12.10
2024-01-12T02:00:37.196Z,12.97
2024-01-12T02:03:41.571Z,11.80
2024-01-12T02:06:50.219Z,12.73
2024-01-12T02:10:01.807Z,11.73
2024-01-12T02:13:27.560Z,12.63
2024-01-12T02:16:42.890Z,12.10
2024-01-12T02:20:06.222Z,12.15
2024-01-12T02:23:30.987Z,11.35
2024-01-12T02:26:59.917Z,11.75
2024-01-12T02:30:21.888Z,11.73
2024-01-12T02:33:46.913Z,10.70
2024-01-12T02:37:15.879Z,12.15
2024-01-12T02:40:31.498Z,12.10
2024-01-12T02:43:42.809Z,11.52
2024-01-12T02:47:03.116Z,11.73
2024-01-12T02:50:23.749Z,11.67
2024-01-12T02:53:40.691Z,12.35
2024-01-12T02:56:50.205Z,13.15
2024-01-12T03:00:04.480Z,12.13
2024-01-12T03:03:17.802Z,11.13
2024-01-12T03:06:40.959Z,10.83
2024-01-12T03:10:06.961Z,10.63
2024-01-12T03:13:23.834Z,10.25
2024-01-12T03:16:45.473Z,11.88
2024-01-12T03:19:55.777Z,10.75
2024-01-12T03:23:15.788Z,10.33
2024-01-12T03:26:40.547Z,10.90
2024-01-12T03:30:05.226Z,10.95
2024-01-12T03:33:37.744Z,9.85
2024-01-12T03:36:47.648Z,10.90
2024-01-12T03:40:13.268Z,10.37
2024-01-12T03:43:41.589Z,10.07
2024-01-12T03:46:44.988Z,10.15
2024-01-12T03:49:49.871Z,10.57
2024-01-12T03:52:53.806Z,10.63
2024-01-12T03:55:57.914Z,10.70
2024-01-12T03:59:01.941Z,10.43
2024-01-12T04:02:18.048Z,8.70
2024-01-12T04:05:25.203Z,8.52
2024-01-12T04:08:41.711Z,9.55
2024-01-12T04:12:18.687Z,8.50
2024-01-12T04:15:44.844Z,9.32
2024-01-12T04:19:10.824Z,9.82
2024-01-12T04:22:33.073Z,8.65
2024-01-12T04:25:54.483Z,8.77
2024-01-12T04:29:15.211Z,7.67
2024-01-12T04:32:27.877Z,8.70
2024-01-12T04:35:47.738Z,8.90
2024-01-12T04:38:55.819Z,8.82
2024-01-12T04:42:00.431Z,9.05
2024-01-12T04:45:18.321Z,8.20
2024-01-12T04:48:34.902Z,8.25
2024-01-12T04:51:38.807Z,8.45
2024-01-12T04:54:43.105Z,7.00
2024-01-12T04:57:57.780Z,8.27
2024-01-12T05:01:15.602Z,8.07
2024-01-12T05:04:39.756Z,6.68
2024-01-12T05:08:04.867Z,7.75
2024-01-12T05:11:15.490Z,5.93
2024-01-12T05:14:38.502Z,7.38
2024-01-12T05:18:01.701Z,7.30
2024-01-12T05:21:26.652Z,6.93
2024-01-12T05:24:40.756Z,6.50
2024-01-12T05:27:45.212Z,7.00
2024-01-12T05:30:51.135Z,7.05
2024-01-12T05:34:01.232Z,6.90
2024-01-12T05:37:05.461Z,6.35
2024-01-12T05:40:12.803Z,6.85
2024-01-12T05:43:27.873Z,5.95
2024-01-12T05:46:32.685Z,5.38
2024-01-12T05:49:46.870Z,5.40
2024-01-12T05:53:01.588Z,5.38
2024-01-12T05:56:29.820Z,5.97
2024-01-12T05:59:50.514Z,5.53
2024-01-12T06:03:10.598Z,5.50
2024-01-12T06:06:26.630Z,5.73
2024-01-12T06:09:30.525Z,4.70
2024-01-12T06:12:37.654Z,5.72
2024-01-12T06:15:59.363Z,5.55
2024-01-12T06:19:23.331Z,5.05
2024-01-12T06:22:41.241Z,5.70
2024-01-12T06:26:02.129Z,4.90
2024-01-12T06:29:12.138Z,4.80
2024-01-12T06:32:20.834Z,5.03
2024-01-12T06:35:29.995Z,5.13
2024-01-12T06:38:43.526Z,4.87
2024-01-12T06:42:08.788Z,5.20
2024-01-12T06:46:10.460Z,5.28
2024-01-12T06:49:57.132Z,4.93
2024-01-12T06:53:17.916Z,5.43
2024-01-12T06:56:45.482Z,5.87
2024-01-12T06:59:57.277Z,5.55
2024-01-12T07:03:17.639Z,4.95
2024-01-12T07:06:27.738Z,5.22
2024-01-12T07:09:38.973Z,5.18
2024-01-12T07:13:24.585Z,6.00
2024-01-12T07:16:44.166Z,4.97
2024-01-12T07:19:57.053Z,5.63
2024-01-12T07:23:10.604Z,6.00
2024-01-12T07:26:15.688Z,5.88
2024-01-12T07:29:32.834Z,6.37
2024-01-12T07:32:46.057Z,5.40
2024-01-12T07:35:52.478Z,5.43
2024-01-12T07:39:00.625Z,6.82
2024-01-12T07:42:17.268Z,6.65
2024-01-12T07:45:40.543Z,5.93
2024-01-12T07:48:56.778Z,6.70
2024-01-12T07:57:02.736Z,7.47
2024-01-12T08:00:30.763Z,6.80
2024-01-12T08:03:59.257Z,6.67
2024-01-12T08:07:23.297Z,6.95
2024-01-12T08:10:38.560Z,7.25
2024-01-12T08:13:51.046Z,7.90
2024-01-12T08:17:16.255Z,8.10
2024-01-12T08:20:58.241Z,7.67
2024-01-12T08:24:22.829Z,7.68
2024-01-12T08:27:39.172Z,7.28
2024-01-12T08:31:05.666Z,7.90
2024-01-12T08:34:30.186Z,7.43
2024-01-12T08:37:40.149Z,7.90
2024-01-12T08:40:57.236Z,7.07
2024-01-12T08:44:23.140Z,8.30
2024-01-12T08:47:46.644Z,7.10
2024-01-12T08:51:13.764Z,8.02
2024-01-12T08:54:25.289Z,8.03
2024-01-12T08:57:37.607Z,8.95
2024-01-12T09:00:47.681Z,8.50
2024-01-12T09:03:56.327Z,9.10
2024-01-12T09:07:09.977Z,7.78
2024-01-12T09:10:24.390Z,7.83
2024-01-12T09:13:28.975Z,7.25
2024-01-12T09:16:43.378Z,7.63
2024-01-12T09:19:52.540Z,7.00
2024-01-12T09:23:05.008Z,7.18
2024-01-12T09:26:26.728Z,7.93
2024-01-12T09:29:45.106Z,7.13
2024-01-12T09:32:51.578Z,7.95
2024-01-12T09:36:16.168Z,8.20
2024-01-12T09:39:44.149Z,8.57
2024-01-12T09:43:29.008Z,7.17
2024-01-12T09:47:13.399Z,7.93
2024-01-12T09:50:40.544Z,6.60
2024-01-12T09:53:50.548Z,7.20
2024-01-12T09:56:58.012Z,7.40
2024-01-12T10:00:27.923Z,8.03
2024-01-12T10:03:41.692Z,8.23
2024-01-12T10:06:47.430Z,7.25
2024-01-12T10:10:02.712Z,7.20
2024-01-12T10:13:18.479Z,7.05
2024-01-12T10:16:41.914Z,6.47
2024-01-12T10:19:57.729Z,8.07
2024-01-12T10:23:05.548Z,7.53
2024-01-12T10:26:18.475Z,6.95
2024-01-12T10:29:38.598Z,6.88
2024-01-12T10:33:04.256Z,7.67
2024-01-12T10:36:32.684Z,6.72
2024-01-12T10:46:04.470Z,8.20
2024-01-12T10:49:22.104Z,7.18
2024-01-12T10:52:33.887Z,7.87
2024-01-12T10:56:00.437Z,7.72
2024-01-12T10:59:18.683Z,8.30
2024-01-12T11:02:26.072Z,7.40
2024-01-12T11:05:38.579Z,6.75
2024-01-12T11:08:52.459Z,7.37
2024-01-12T11:12:20.901Z,8.27
2024-01-12T11:15:44.293Z,6.68
2024-01-12T11:19:34.175Z,6.68
2024-01-12T11:23:05.011Z,7.70
2024-01-12T11:26:50.405Z,7.13
2024-01-12T11:30:05.912Z,6.35
2024-01-12T11:33:30.623Z,6.70
2024-01-12T11:36:45.853Z,6.00
2024-01-12T11:40:11.830Z,6.90
2024-01-12T11:43:21.393Z,6.20
2024-01-12T11:46:47.677Z,7.40
2024-01-12T11:50:10.871Z,6.05
2024-01-12T11:53:15.112Z,7.18
2024-01-12T11:56:35.255Z,6.20
2024-01-12T11:59:49.781Z,9.17
2024-01-12T12:03:04.968Z,8.32
2024-01-12T12:06:21.887Z,6.53
2024-01-12T12:09:41.979Z,6.90
2024-01-12T12:13:01.916Z,7.05
2024-01-12T12:16:23.474Z,7.23
2024-01-12T12:19:34.849Z,7.28
2024-01-12T12:22:48.276Z,6.30
2024-01-12T12:26:14.742Z,6.60
2024-01-12T12:29:43.282Z,8.68
2024-01-12T12:33:17.431Z,7.70
2024-01-12T12:36:34.017Z,6.50
2024-01-12T12:39:54.267Z,7.93
2024-01-12T12:43:05.209Z,7.57
2024-01-12T12:46:24.529Z,7.18
2024-01-12T12:49:53.534Z,7.37
2024-01-12T12:53:13.538Z,6.88
2024-01-12T12:56:22.080Z,6.85
2024-01-12T12:59:37.579Z,5.75
2024-01-12T13:03:01.468Z,6.30
2024-01-12T13:06:14.595Z,5.60
2024-01-12T13:09:26.590Z,6.10
2024-01-12T13:12:50.619Z,6.45
2024-01-12T13:16:11.857Z,5.65
2024-01-12T13:19:27.332Z,4.90
2024-01-12T13:22:43.242Z,7.03
2024-01-12T13:25:57.652Z,5.95
2024-01-12T13:29:04.418Z,6.63
2024-01-12T13:32:10.319Z,6.63
2024-01-12T13:35:29.834Z,5.53
2024-01-12T13:39:04.456Z,5.20
2024-01-12T13:42:10.037Z,5.22
2024-01-12T13:45:24.401Z,5.80
2024-01-12T13:48:48.234Z,5.30
2024-01-12T13:52:17.114Z,5.20
2024-01-12T13:55:43.459Z,6.83
2024-01-12T13:59:12.436Z,4.97
2024-01-12T14:02:27.344Z,5.20
2024-01-12T14:05:34.426Z,7.20
2024-01-12T14:08:44.682Z,5.43
2024-01-12T14:11:48.830Z,5.00
2024-01-12T14:14:52.440Z,4.47
2024-01-12T14:18:11.721Z,4.43
2024-01-12T14:21:25.188Z,5.18
2024-01-12T14:24:38.344Z,4.70
2024-01-12T14:27:42.687Z,4.83
2024-01-12T14:30:49.453Z,4.80
2024-01-12T14:34:07.928Z,4.25
2024-01-12T14:37:16.566Z,5.30
2024-01-12T14:40:24.334Z,4.22
2024-01-12T14:43:40.272Z,4.43
2024-01-12T14:47:09.958Z,4.82
2024-01-12T14:50:34.753Z,4.07
2024-01-12T14:53:41.820Z,4.80
2024-01-12T14:56:54.735Z,4.72
2024-01-12T15:00:09.699Z,4.83
2024-01-12T15:03:14.764Z,4.70
2024-01-12T15:06:29.913Z,5.03
2024-01-12T15:09:33.350Z,4.30
2024-01-12T15:12:49.277Z,4.40
2024-01-12T15:16:01.230Z,4.50
2024-01-12T15:19:17.365Z,3.88
2024-01-12T15:22:31.688Z,4.68
2024-01-12T15:25:45.167Z,4.07
2024-01-12T15:28:58.492Z,4.47
2024-01-12T15:32:02.282Z,3.67
2024-01-12T15:35:07.846Z,4.70
2024-01-12T15:38:21.742Z,4.20
2024-01-12T15:41:38.119Z,3.95
2024-01-12T15:45:05.949Z,4.68
2024-01-12T15:48:31.069Z,4.47
2024-01-12T15:51:43.115Z,4.80
2024-01-12T15:54:52.506Z,5.07
2024-01-12T15:58:10.095Z,4.95
2024-01-12T16:01:27.963Z,5.05
2024-01-12T16:04:43.018Z,5.00
2024-01-12T16:08:06.947Z,4.95
2024-01-12T16:11:26.969Z,4.80
2024-01-12T16:14:48.055Z,4.63
2024-01-12T16:18:12.948Z,4.47
2024-01-12T16:21:39.726Z,4.63
2024-01-12T16:24:47.516Z,5.18
2024-01-12T16:28:10.184Z,4.13
2024-01-12T16:31:30.534Z,3.83
2024-01-12T16:34:38.132Z,4.28
2024-01-12T16:38:09.934Z,4.10
2024-01-12T16:41:21.493Z,4.32
2024-01-12T16:44:39.736Z,4.47
2024-01-12T16:47:53.979Z,4.65
2024-01-12T16:51:20.038Z,4.18
2024-01-12T16:54:47.324Z,4.27
2024-01-12T16:57:50.288Z,4.35
2024-01-12T17:01:14.063Z,5.15
2024-01-12T17:04:38.531Z,5.13
2024-01-12T17:07:54.713Z,5.25
2024-01-12T17:11:15.641Z,4.87
2024-01-12T17:14:29.621Z,5.65
2024-01-12T17:17:52.549Z,5.32
2024-01-12T17:21:13.764Z,5.40
2024-01-12T17:24:30.671Z,5.68
2024-01-12T17:27:57.549Z,5.50
2024-01-12T17:31:20.749Z,5.60
2024-01-12T17:34:40.810Z,4.93
2024-01-12T17:38:10.142Z,5.07
2024-01-12T17:41:25.706Z,4.50
2024-01-12T17:44:44.889Z,4.83
2024-01-12T17:48:03.734Z,4.13
2024-01-12T17:51:33.199Z,3.80
2024-01-12T17:55:30.079Z,4.40
2024-01-12T17:59:30.510Z,3.60
2024-01-12T18:03:21.045Z,3.30
2024-01-12T18:07:10.916Z,4.18
2024-01-12T18:10:56.794Z,3.63
2024-01-12T18:14:53.386Z,3.88
2024-01-12T18:18:13.339Z,3.95
2024-01-12T18:21:28.329Z,4.23
2024-01-12T18:24:56.115Z,4.50
2024-01-12T18:28:10.077Z,4.40
2024-01-12T18:31:32.066Z,3.97
2024-01-12T18:34:42.134Z,4.13
2024-01-12T18:38:05.230Z,4.70
2024-01-12T18:41:26.031Z,4.35
2024-01-12T18:44:49.603Z,4.20
2024-01-12T18:48:14.937Z,4.30
2024-01-12T18:51:28.358Z,3.72
2024-01-12T18:54:38.792Z,3.80
2024-01-12T18:57:51.319Z,3.88
2024-01-12T19:00:56.723Z,3.63
2024-01-12T19:04:07.970Z,4.47
2024-01-12T19:07:14.961Z,3.88
2024-01-12T19:10:22.792Z,4.47
2024-01-12T19:13:37.267Z,4.22
2024-01-12T19:16:59.098Z,3.78
2024-01-12T19:20:20.070Z,3.92
2024-01-12T19:23:43.235Z,4.15
2024-01-12T19:27:04.138Z,3.53
2024-01-12T19:30:20.502Z,3.70
2024-01-12T19:33:42.258Z,3.50
2024-01-12T19:37:09.162Z,3.45
2024-01-12T19:40:31.014Z,3.33
2024-01-12T19:43:54.060Z,3.60
2024-01-12T19:47:19.186Z,3.25
2024-01-12T19:50:41.078Z,3.60
2024-01-12T19:54:04.079Z,3.13
2024-01-12T19:57:21.258Z,3.65
2024-01-12T20:00:42.098Z,3.40
2024-01-12T20:04:05.293Z,3.65
2024-01-12T20:07:24.225Z,3.92
2024-01-12T20:10:51.014Z,3.95
2024-01-12T20:14:15.143Z,3.78
2024-01-12T20:17:18.242Z,3.70
2024-01-12T20:20:22.110Z,4.47
2024-01-12T20:23:36.764Z,4.57
2024-01-12T20:26:53.240Z,4.72
2024-01-12T20:30:16.017Z,4.57
2024-01-12T20:33:41.514Z,5.33
2024-01-12T20:37:02.181Z,5.07
2024-01-12T20:40:19.048Z,5.20
2024-01-12T20:43:47.064Z,5.10
2024-01-12T20:47:04.253Z,5.50
2024-01-12T20:50:27.980Z,5.27
2024-01-12T20:53:53.841Z,5.78
2024-01-12T20:57:11.427Z,5.68
2024-01-12T21:00:32.197Z,5.82
2024-01-12T21:03:59.105Z,5.55
2024-01-12T21:07:21.714Z,5.10
2024-01-12T21:10:44.926Z,6.40
2024-01-12T21:14:08.851Z,6.28
2024-01-12T21:17:29.824Z,6.05
2024-01-12T21:20:33.089Z,6.80
2024-01-12T21:23:36.741Z,6.43
2024-01-12T21:26:46.371Z,6.70
2024-01-12T21:29:49.994Z,6.53
2024-01-12T21:32:53.611Z,5.65
2024-01-12T21:36:09.142Z,5.90
2024-01-12T21:39:27.059Z,6.87
2024-01-12T21:42:47.792Z,6.57
2024-01-12T21:46:09.853Z,6.07
2024-01-12T21:49:32.955Z,6.10
2024-01-12T21:52:54.918Z,6.65
2024-01-12T21:56:13.994Z,5.67
2024-01-12T21:59:34.788Z,6.38
2024-01-12T22:02:39.329Z,7.45
2024-01-12T22:05:42.925Z,6.78
2024-01-12T22:08:56.504Z,6.43
2024-01-12T22:12:19.772Z,7.27
2024-01-12T22:15:25.314Z,7.22
2024-01-12T22:18:29.564Z,6.60
2024-01-12T22:21:37.342Z,7.22
2024-01-12T22:24:50.798Z,6.75
2024-01-12T22:27:54.332Z,7.23
2024-01-12T22:31:04.268Z,7.53
2024-01-12T22:34:18.754Z,6.88
2024-01-12T22:37:39.291Z,7.05
2024-01-12T22:40:57.616Z,7.30
2024-01-12T22:44:20.974Z,6.60
2024-01-12T22:47:44.737Z,6.75
2024-01-12T22:51:06.408Z,7.38
2024-01-12T22:54:28.380Z,6.68
2024-01-12T22:57:38.953Z,7.28
2024-01-12T23:01:01.732Z,6.00
2024-01-12T23:04:34.584Z,8.05
2024-01-12T23:07:55.746Z,7.65
2024-01-12T23:11:14.606Z,8.55
2024-01-12T23:14:21.948Z,7.05
2024-01-12T23:17:38.455Z,7.83
2024-01-12T23:20:42.505Z,7.30
2024-01-12T23:24:05.589Z,7.57
2024-01-12T23:27:29.794Z,7.57
2024-01-12T23:30:46.987Z,6.95
2024-01-12T23:34:10.749Z,6.73
2024-01-12T23:37:14.538Z,6.85
2024-01-12T23:40:21.106Z,7.60
2024-01-12T23:43:30.164Z,7.05
2024-01-12T23:46:51.440Z,7.63
2024-01-12T23:49:54.944Z,6.97
2024-01-12T23:53:02.991Z,7.38
2024-01-12T23:56:18.562Z,6.95
2024-01-12T23:59:35.576Z,7.05
